Time;durP1;ratioP1;P1;durP2;ratioP2;P2;SDS_P1;SDS_P2;PMS_P1;PMS_P2;Temp;Humidity;BMP_temperature;BMP_pressure;BME280_temperature;BME280_humidity;BME280_pressure;Samples;Min_cycle;Max_cycle;Signal;HPM_P1;HPM_P2
2023/08/24 04:10:09;;;;;;;12.35;11.05;;;;;;;24.08;91.35;100605.59;5606518;31;80792;-57
2023/08/24 04:13:12;;;;;;;12.48;10.70;;;;;;;24.08;91.35;100605.59;5582692;31;33331;-57
2023/08/24 04:16:14;;;;;;;12.68;10.77;;;;;;;23.58;93.01;100601.94;5583492;31;33676;-57
2023/08/24 04:19:16;;;;;;;13.82;10.63;;;;;;;23.63;90.85;100607.09;5583440;31;34040;-57
2023/08/24 04:22:19;;;;;;;12.13;10.35;;;;;;;23.63;93.46;100605.16;5583446;31;33644;-56
2023/08/24 04:25:21;;;;;;;11.12;10.02;;;;;;;23.63;92.64;100604.38;5583553;31;34472;-57
2023/08/24 04:28:23;;;;;;;11.80;9.90;;;;;;;23.63;91.91;100601.62;5583337;32;33962;-57
2023/08/24 04:31:26;;;;;;;13.20;10.10;;;;;;;23.67;88.89;100607.97;5564085;32;33492;-57
2023/08/24 04:34:28;;;;;;;12.85;10.10;;;;;;;23.71;88.47;100608.06;5563753;32;34442;-57
2023/08/24 04:37:31;;;;;;;11.12;9.65;;;;;;;23.79;88.00;100612.50;5563878;32;33842;-57
2023/08/24 04:40:46;;;;;;;12.35;10.43;;;;;;;23.84;87.72;100618.50;5563499;32;34315;-57
2023/08/24 04:43:48;;;;;;;10.88;9.55;;;;;;;23.77;88.64;100615.59;5563974;32;34158;-57
2023/08/24 04:46:51;;;;;;;11.02;9.57;;;;;;;23.70;91.63;100620.16;5563417;32;33757;-57
2023/08/24 04:49:53;;;;;;;11.05;9.57;;;;;;;23.65;92.87;100613.81;5563442;32;33744;-57
2023/08/24 04:52:55;;;;;;;12.40;9.77;;;;;;;23.73;92.94;100611.22;5563785;32;34046;-57
2023/08/24 04:55:58;;;;;;;21.70;10.52;;;;;;;23.75;90.48;100620.66;5563493;32;34485;-57
2023/08/24 04:59:02;;;;;;;12.90;10.65;;;;;;;23.76;90.92;100619.50;5563386;32;34155;-57
2023/08/24 05:02:04;;;;;;;14.45;10.93;;;;;;;23.72;91.97;100626.87;5562072;32;33323;-57
2023/08/24 05:05:09;;;;;;;12.52;10.10;;;;;;;23.82;90.79;100629.00;5563586;32;33664;-57
2023/08/24 05:08:12;;;;;;;11.55;10.23;;;;;;;23.89;93.09;100629.12;5563448;32;34397;-56
2023/08/24 05:11:18;;;;;;;12.45;10.18;;;;;;;24.02;91.13;100628.94;5563032;32;34222;-56
2023/08/24 05:14:21;;;;;;;15.32;9.50;;;;;;;24.10;86.17;100633.37;5563343;32;33962;-57
2023/08/24 05:17:24;;;;;;;10.98;9.38;;;;;;;24.19;86.67;100633.94;5563307;32;34391;-57
2023/08/24 05:20:28;;;;;;;16.87;9.10;;;;;;;24.41;83.02;100637.84;5554405;32;33608;-57
2023/08/24 05:23:32;;;;;;;12.70;9.57;;;;;;;24.49;82.61;100641.47;5548594;32;34077;-56
2023/08/24 05:26:34;;;;;;;13.98;10.07;;;;;;;24.65;82.99;100636.63;5556428;32;33536;-57
2023/08/24 05:29:36;;;;;;;16.95;10.00;;;;;;;24.74;86.81;100636.38;5549496;32;33714;-57
2023/08/24 05:32:39;;;;;;;10.45;9.13;;;;;;;24.81;82.47;100634.50;5550248;32;33642;-57
2023/08/24 05:35:42;;;;;;;12.10;10.20;;;;;;;25.00;80.71;100643.75;5550164;32;33750;-57
2023/08/24 05:38:46;;;;;;;16.37;9.98;;;;;;;25.10;81.64;100648.62;5558898;32;33557;-57
2023/08/24 05:42:06;;;;;;;13.13;9.63;;;;;;;25.25;78.59;100652.34;5552692;32;34389;-57
2023/08/24 05:45:09;;;;;;;19.62;10.20;;;;;;;25.30;79.17;100646.53;5558271;32;34259;-57
2023/08/24 05:48:12;;;;;;;17.50;9.55;;;;;;;25.31;79.53;100648.91;5550087;32;34235;-57
2023/08/24 05:51:14;;;;;;;12.05;10.00;;;;;;;25.39;80.88;100649.75;5551925;32;33499;-57
2023/08/24 05:54:20;;;;;;;14.35;10.60;;;;;;;25.45;79.18;100642.78;5549902;32;34391;-57
2023/08/24 05:57:22;;;;;;;;;;;;;;;25.57;78.53;100649.97;5548870;32;33599;-58
2023/08/24 06:00:24;;;;;;;11.88;10.20;;;;;;;25.59;78.83;100653.13;5569397;32;33504;-58
2023/08/24 06:03:27;;;;;;;15.40;9.60;;;;;;;25.65;78.41;100656.34;5553814;32;33688;-57
2023/08/24 06:06:29;;;;;;;14.50;10.40;;;;;;;25.66;80.37;100655.16;5549858;32;34296;-57
2023/08/24 06:09:31;;;;;;;18.80;11.23;;;;;;;25.77;79.29;100650.59;5551291;32;33573;-58
2023/08/24 06:12:34;;;;;;;13.93;10.48;;;;;;;25.84;78.68;100647.16;5567612;32;33858;-57
2023/08/24 06:15:40;;;;;;;14.10;10.18;;;;;;;25.81;76.43;100648.69;5562612;32;33549;-57
2023/08/24 06:18:44;;;;;;;25.40;10.73;;;;;;;25.95;76.19;100639.78;5568073;32;33642;-57
2023/08/24 06:21:47;;;;;;;12.90;9.48;;;;;;;25.98;77.82;100642.56;5569262;32;33587;-57
2023/08/24 06:24:49;;;;;;;13.82;9.65;;;;;;;26.06;77.11;100642.62;5560988;32;33618;-57
2023/08/24 06:27:53;;;;;;;13.05;10.10;;;;;;;26.05;75.14;100649.31;5562407;32;32626;-57
2023/08/24 06:30:55;;;;;;;11.65;10.45;;;;;;;26.14;75.20;100647.03;5567957;32;33689;-57
2023/08/24 06:33:58;;;;;;;12.77;9.10;;;;;;;26.20;75.71;100646.31;5569141;32;34320;-57
2023/08/24 06:37:01;;;;;;;18.52;9.27;;;;;;;26.28;79.28;100652.62;5568792;32;33648;-57
2023/08/24 06:40:05;;;;;;;10.52;8.20;;;;;;;26.39;76.82;100653.53;5568782;32;34346;-57
2023/08/24 06:43:07;;;;;;;18.60;9.38;;;;;;;26.50;76.38;100658.34;5561300;32;33709;-57
2023/08/24 06:46:10;;;;;;;13.88;8.70;;;;;;;26.53;75.16;100652.09;5548990;32;33671;-56
2023/08/24 06:49:12;;;;;;;10.05;9.02;;;;;;;26.52;75.01;100645.78;5551711;32;33888;-57
2023/08/24 06:52:15;;;;;;;11.02;8.65;;;;;;;26.52;73.35;100645.78;5553136;32;33567;-56
2023/08/24 06:55:18;;;;;;;18.70;9.63;;;;;;;26.54;73.44;100648.94;5548861;32;33504;-57
2023/08/24 06:58:20;;;;;;;11.75;8.63;;;;;;;26.60;73.43;100646.63;5549208;32;33672;-57
2023/08/24 07:01:23;;;;;;;24.63;9.57;;;;;;;26.61;71.45;100643.47;5548956;32;34255;-57
2023/08/24 07:04:27;;;;;;;11.95;8.45;;;;;;;26.65;72.52;100649.00;5549332;32;34311;-57
2023/08/24 07:07:30;;;;;;;9.65;8.65;;;;;;;26.71;71.31;100645.50;5548932;32;33164;-57
2023/08/24 07:10:32;;;;;;;11.05;8.35;;;;;;;26.70;70.59;100643.94;5548976;32;33662;-57
2023/08/24 07:13:35;;;;;;;12.88;9.15;;;;;;;26.78;71.79;100641.22;5549039;32;34361;-57
2023/08/24 07:16:37;;;;;;;8.80;7.78;;;;;;;26.83;71.95;100643.63;5548822;32;33589;-57
2023/08/24 07:19:40;;;;;;;10.10;8.80;;;;;;;26.79;70.21;100648.28;5551622;32;33608;-57
2023/08/24 07:22:42;;;;;;;12.68;9.52;;;;;;;26.83;70.59;100651.88;5567551;32;32151;-57
2023/08/24 07:25:44;;;;;;;9.57;8.68;;;;;;;26.87;70.50;100642.47;5566875;32;33723;-57
2023/08/24 07:28:47;;;;;;;10.18;8.23;;;;;;;26.90;70.54;100649.16;5565867;31;33520;-57
2023/08/24 07:31:49;;;;;;;18.02;9.35;;;;;;;26.92;69.61;100646.78;5566975;32;33593;-57
2023/08/24 07:34:52;;;;;;;10.80;8.65;;;;;;;26.98;68.46;100645.25;5568483;32;33732;-57
2023/08/24 07:37:55;;;;;;;10.00;9.00;;;;;;;26.91;69.19;100645.22;5561723;32;33983;-57
2023/08/24 07:40:58;;;;;;;9.60;8.60;;;;;;;26.94;69.16;100649.97;5567760;32;34360;-57
2023/08/24 07:44:00;;;;;;;11.05;8.20;;;;;;;26.97;69.75;100649.19;5567337;32;33640;-57
2023/08/24 07:47:03;;;;;;;11.57;8.88;;;;;;;26.97;69.64;100649.19;5567458;32;33665;-57
2023/08/24 07:50:07;;;;;;;11.85;8.52;;;;;;;26.99;68.29;100646.03;5568017;32;33371;-57
2023/08/24 07:53:10;;;;;;;14.95;8.30;;;;;;;27.04;70.52;100640.19;5568040;32;33768;-57
2023/08/24 07:56:12;;;;;;;13.62;9.88;;;;;;;27.03;70.48;100647.66;5567948;32;33755;-58
2023/08/24 07:59:14;;;;;;;13.57;8.20;;;;;;;27.11;71.42;100642.97;5567151;32;33546;-57
2023/08/24 08:02:16;;;;;;;12.77;8.65;;;;;;;27.15;70.69;100649.28;5566781;32;33386;-57
2023/08/24 08:05:19;;;;;;;10.00;8.73;;;;;;;27.13;70.58;100646.94;5567702;32;33675;-57
2023/08/24 08:08:21;;;;;;;11.30;8.43;;;;;;;27.14;69.69;100653.22;5565749;32;33610;-57
2023/08/24 08:11:24;;;;;;;9.98;7.85;;;;;;;27.17;70.73;100646.97;5547669;32;33093;-57
2023/08/24 08:14:27;;;;;;;13.02;7.93;;;;;;;27.19;68.75;100652.88;5548000;32;33691;-57
2023/08/24 08:17:30;;;;;;;11.12;8.07;;;;;;;27.22;69.63;100643.03;5547972;32;33569;-57
2023/08/24 08:20:33;;;;;;;10.63;9.07;;;;;;;27.32;69.78;100647.81;5548393;32;34341;-58
2023/08/24 08:23:35;;;;;;;10.95;8.13;;;;;;;27.32;69.87;100650.56;5547661;32;33580;-57
2023/08/24 08:26:38;;;;;;;8.93;8.02;;;;;;;27.40;70.14;100647.44;5548042;32;34279;-57
2023/08/24 08:29:40;;;;;;;12.55;8.13;;;;;;;27.41;69.14;100654.50;5560461;32;33652;-57
2023/08/24 08:32:42;;;;;;;10.55;7.82;;;;;;;27.44;69.81;100657.66;5566347;32;34270;-57
2023/08/24 08:35:45;;;;;;;12.60;8.18;;;;;;;27.50;69.41;100659.66;5567138;32;33702;-57
2023/08/24 08:38:47;;;;;;;11.55;8.50;;;;;;;27.53;67.30;100655.34;5567339;32;34288;-57
2023/08/24 08:41:50;;;;;;;10.10;8.32;;;;;;;27.55;66.94;100655.72;5567183;32;34321;-57
2023/08/24 08:44:54;;;;;;;10.25;8.15;;;;;;;27.61;66.31;100657.72;5567208;32;33540;-57
2023/08/24 08:48:01;;;;;;;8.75;7.72;;;;;;;27.65;66.34;100657.75;5566813;32;33068;-58
2023/08/24 08:51:03;;;;;;;9.68;8.20;;;;;;;27.71;66.24;100655.38;5563396;32;34186;-57
2023/08/24 08:54:06;;;;;;;14.63;8.50;;;;;;;27.72;65.24;100655.00;5566998;32;33845;-57
2023/08/24 08:57:08;;;;;;;11.98;8.35;;;;;;;27.84;63.73;100642.84;5569567;32;33635;-57
2023/08/24 09:00:14;;;;;;;10.60;8.70;;;;;;;27.87;61.85;100644.81;5569792;32;33549;-57
2023/08/24 09:03:17;;;;;;;;;;;;;;;27.83;63.61;100636.53;5569731;32;33604;-57
2023/08/24 09:06:23;;;;;;;10.77;8.48;;;;;;;27.82;63.00;100632.22;5569768;32;33977;-57
2023/08/24 09:09:26;;;;;;;9.18;8.27;;;;;;;27.81;62.35;100638.91;5568095;32;33716;-57
2023/08/24 09:12:32;;;;;;;10.90;8.82;;;;;;;27.87;62.85;100633.78;5569948;32;34279;-57
2023/08/24 09:15:36;;;;;;;11.12;9.27;;;;;;;27.91;62.75;100626.31;5569454;32;34481;-57
2023/08/24 09:18:39;;;;;;;15.45;8.98;;;;;;;27.92;63.01;100622.41;5569688;32;33447;-57
2023/08/24 09:21:42;;;;;;;9.68;8.65;;;;;;;27.94;62.62;100628.28;5569501;32;33964;-57
2023/08/24 09:24:48;;;;;;;11.52;9.57;;;;;;;27.94;61.96;100633.78;5565444;32;34449;-57
2023/08/24 09:28:01;;;;;;;22.27;9.93;;;;;;;28.02;63.28;100629.09;5567507;32;33648;-57
2023/08/24 09:31:03;;;;;;;17.55;8.98;;;;;;;28.10;65.07;100633.41;5568104;32;34308;-57
2023/08/24 09:34:06;;;;;;;14.35;9.27;;;;;;;28.14;63.82;100625.16;5568125;32;33667;-57
2023/08/24 09:37:14;;;;;;;13.15;9.00;;;;;;;28.18;64.28;100623.16;5567535;32;33816;-57
2023/08/24 09:40:24;;;;;;;12.00;8.95;;;;;;;28.19;63.23;100611.75;5569349;32;34259;-57
2023/08/24 09:43:30;;;;;;;36.45;10.23;;;;;;;28.21;63.71;100614.94;5569312;32;33608;-57
2023/08/24 09:46:32;;;;;;;10.15;8.15;;;;;;;28.22;62.23;100605.47;5569195;32;34293;-57
2023/08/24 09:49:35;;;;;;;9.70;8.18;;;;;;;28.25;60.65;100607.44;5568616;32;34410;-57
2023/08/24 09:52:42;;;;;;;10.80;8.88;;;;;;;28.25;60.44;100603.91;5568375;32;33325;-57
2023/08/24 09:55:58;;;;;;;9.57;8.15;;;;;;;28.20;59.64;100604.28;5567870;32;33605;-57
2023/08/24 09:59:10;;;;;;;12.18;7.93;;;;;;;28.22;58.56;100604.69;5568810;32;33632;-57
2023/08/24 10:02:19;;;;;;;10.65;8.00;;;;;;;28.28;59.25;100600.34;5569027;32;34308;-57
2023/08/24 10:05:26;;;;;;;13.60;7.85;;;;;;;28.33;56.06;100605.44;5568145;32;34387;-57
2023/08/24 10:08:52;;;;;;;10.93;8.15;;;;;;;28.55;54.59;100598.75;5564352;32;34274;-57
2023/08/24 10:12:00;;;;;;;9.27;7.85;;;;;;;28.63;58.08;100605.03;5554504;32;33807;-57
2023/08/24 10:15:06;;;;;;;11.45;7.72;;;;;;;28.63;57.30;100598.72;5561879;32;33703;-58
2023/08/24 10:18:10;;;;;;;8.98;7.45;;;;;;;28.53;55.48;100611.34;5568169;32;33704;-57
2023/08/24 10:21:12;;;;;;;9.65;5.43;;;;;;;28.55;54.75;100600.72;5559164;32;33833;-57
2023/08/24 10:24:16;;;;;;;9.18;5.93;;;;;;;28.70;46.33;100605.00;5564177;32;33813;-57
2023/08/24 10:27:19;;;;;;;8.00;5.97;;;;;;;28.84;45.30;100595.09;5566056;32;33672;-57
2023/08/24 10:30:23;;;;;;;9.27;5.87;;;;;;;28.85;45.14;100597.47;5551161;32;33762;-58
2023/08/24 10:33:26;;;;;;;6.18;5.00;;;;;;;29.08;43.76;100591.50;5568178;32;33814;-57
2023/08/24 10:36:29;;;;;;;6.75;5.32;;;;;;;29.02;44.49;100580.09;5562307;32;34459;-57
2023/08/24 10:39:32;;;;;;;6.70;5.40;;;;;;;28.99;46.22;100569.81;5568467;32;34430;-58
2023/08/24 10:42:45;;;;;;;7.50;5.68;;;;;;;29.02;44.49;100563.53;5568374;32;33563;-58
2023/08/24 10:45:58;;;;;;;6.55;5.62;;;;;;;29.14;43.23;100564.25;5549895;32;33619;-57
2023/08/24 10:49:04;;;;;;;8.90;5.68;;;;;;;29.20;43.97;100566.19;5560081;32;33764;-57
2023/08/24 10:52:22;;;;;;;9.25;5.68;;;;;;;29.22;43.65;100563.81;5566299;32;33994;-57
2023/08/24 10:55:27;;;;;;;7.07;5.35;;;;;;;29.19;45.60;100566.59;5564831;32;34315;-57
2023/08/24 10:58:33;;;;;;;6.53;5.83;;;;;;;29.33;43.99;100569.25;5568857;32;33713;-57
2023/08/24 11:01:39;;;;;;;7.72;5.35;;;;;;;29.35;43.16;100563.34;5566700;32;33717;-57
2023/08/24 11:05:01;;;;;;;;;;;;;;;29.35;43.05;100571.63;5567455;32;34560;-57
2023/08/24 11:08:05;;;;;;;7.82;5.65;;;;;;;29.43;42.02;100560.13;5568574;32;33985;-57
2023/08/24 11:11:18;;;;;;;7.57;5.85;;;;;;;29.35;43.65;100569.66;5561779;32;33695;-57
2023/08/24 11:14:25;;;;;;;9.15;5.90;;;;;;;29.44;44.13;100560.94;5549169;32;33744;-57
2023/08/24 11:17:32;;;;;;;8.63;5.55;;;;;;;29.45;42.73;100560.50;5557802;32;33657;-57
2023/08/24 11:20:34;;;;;;;7.10;5.35;;;;;;;29.45;42.18;100551.44;5564517;32;33755;-57
2023/08/24 11:23:37;;;;;;;10.85;5.18;;;;;;;29.51;42.63;100549.84;5566925;32;33452;-57
2023/08/24 11:26:42;;;;;;;8.65;5.60;;;;;;;29.43;43.35;100551.84;5564700;32;34397;-57
2023/08/24 11:29:44;;;;;;;12.23;5.93;;;;;;;29.59;41.87;100556.09;5567905;32;34312;-57
2023/08/24 11:32:53;;;;;;;15.57;6.28;;;;;;;29.65;43.85;100558.03;5567726;32;34406;-57
2023/08/24 11:35:55;;;;;;;13.30;6.10;;;;;;;29.57;44.05;100552.94;5549422;32;34380;-57
2023/08/24 11:38:59;;;;;;;29.63;7.05;;;;;;;29.42;43.95;100547.53;5567676;32;33902;-57
2023/08/24 11:42:05;;;;;;;9.70;6.00;;;;;;;29.47;44.16;100538.00;5568323;32;33633;-57
2023/08/24 11:45:12;;;;;;;8.43;5.70;;;;;;;29.52;45.45;100548.63;5568321;32;34364;-57
2023/08/24 11:48:15;;;;;;;8.73;6.25;;;;;;;29.55;43.34;100547.81;5562060;32;33707;-57
2023/08/24 11:51:17;;;;;;;8.48;5.82;;;;;;;29.52;43.71;100540.34;5565896;32;33624;-58
2023/08/24 11:54:38;;;;;;;13.02;5.37;;;;;;;29.51;42.79;100538.78;5556584;32;33549;-57
2023/08/24 11:57:42;;;;;;;7.37;6.40;;;;;;;29.56;43.89;100529.28;5559659;32;33726;-58
2023/08/24 12:00:51;;;;;;;8.50;5.78;;;;;;;29.44;43.61;100530.56;5563053;32;34313;-57
2023/08/24 12:03:54;;;;;;;8.63;5.20;;;;;;;29.61;42.46;100528.87;5560288;32;33740;-57
2023/08/24 12:06:56;;;;;;;7.65;5.68;;;;;;;29.57;43.00;100533.59;5559573;32;34016;-58
2023/08/24 12:10:03;;;;;;;26.12;7.18;;;;;;;29.52;41.82;100532.06;5555492;32;33229;-57
2023/08/24 12:13:06;;;;;;;8.52;5.50;;;;;;;29.69;43.29;100522.09;5555604;32;34282;-57
2023/08/24 12:16:10;;;;;;;6.63;5.70;;;;;;;29.65;43.91;100515.81;5559787;32;33722;-57
2023/08/24 12:19:13;;;;;;;8.48;5.80;;;;;;;29.70;41.23;100512.59;5567916;32;33762;-58
2023/08/24 12:22:16;;;;;;;7.85;5.03;;;;;;;29.68;42.05;100503.94;5563402;32;31026;-57
2023/08/24 12:25:23;;;;;;;7.10;5.32;;;;;;;29.76;40.20;100501.91;5554641;32;33639;-57
2023/08/24 12:28:26;;;;;;;5.62;5.03;;;;;;;29.80;40.12;100505.41;5566220;32;34353;-57
2023/08/24 12:31:29;;;;;;;5.95;5.30;;;;;;;29.91;41.01;100508.88;5560526;32;33783;-57
2023/08/24 12:34:32;;;;;;;7.85;6.05;;;;;;;29.98;41.18;100494.22;5560368;32;33631;-57
2023/08/24 12:37:35;;;;;;;8.82;4.97;;;;;;;29.85;41.56;100502.22;5565304;32;34435;-58
2023/08/24 12:40:38;;;;;;;13.93;5.40;;;;;;;29.86;41.30;100503.78;5556620;32;33644;-57
2023/08/24 12:43:40;;;;;;;9.45;5.40;;;;;;;29.78;42.62;100496.78;5563261;32;33665;-57
2023/08/24 12:46:46;;;;;;;16.17;5.90;;;;;;;29.77;41.08;100497.94;5557253;32;33739;-57
2023/08/24 12:49:48;;;;;;;7.43;5.68;;;;;;;29.75;41.26;100483.78;5570170;32;33438;-57
2023/08/24 12:52:55;;;;;;;9.20;5.07;;;;;;;29.62;41.79;100478.75;5561192;32;33608;-57
2023/08/24 12:55:57;;;;;;;23.80;5.47;;;;;;;29.61;41.25;100474.41;5569494;32;33744;-57
2023/08/24 12:58:59;;;;;;;9.50;4.87;;;;;;;29.82;43.11;100481.72;5570463;32;34365;-57
2023/08/24 13:02:02;;;;;;;14.15;4.95;;;;;;;29.68;40.77;100473.56;5570033;32;34237;-57
2023/08/24 13:05:05;;;;;;;8.50;5.25;;;;;;;29.70;41.29;100469.22;5569967;32;34455;-57
2023/08/24 13:08:08;;;;;;;6.55;5.28;;;;;;;29.76;39.88;100474.28;5570065;32;33669;-57
2023/08/24 13:11:11;;;;;;;6.75;5.18;;;;;;;29.80;40.77;100473.06;5570372;32;33593;-57
2023/08/24 13:14:13;;;;;;;9.82;5.95;;;;;;;29.91;40.04;100450.84;5569723;32;33764;-57
2023/08/24 13:17:16;;;;;;;8.48;5.07;;;;;;;29.89;40.89;100454.00;5570415;32;34270;-57
2023/08/24 13:20:18;;;;;;;6.47;5.00;;;;;;;29.84;39.68;100448.16;5570155;32;34359;-57
2023/08/24 13:23:20;;;;;;;8.63;5.50;;;;;;;29.83;39.82;100460.37;5570371;32;33649;-57
2023/08/24 13:26:23;;;;;;;6.90;5.22;;;;;;;29.81;39.88;100441.47;5570116;32;33586;-57
2023/08/24 13:29:27;;;;;;;47.15;7.37;;;;;;;29.87;39.50;100441.81;5570336;32;33678;-56
2023/08/24 13:32:30;;;;;;;9.07;5.30;;;;;;;29.88;41.60;100437.84;5566216;32;34203;-57
2023/08/24 13:35:32;;;;;;;11.25;5.18;;;;;;;29.89;40.59;100444.94;5569890;32;33590;-57
2023/08/24 13:38:34;;;;;;;10.77;4.82;;;;;;;29.79;41.07;100448.59;5570034;32;33707;-57
2023/08/24 13:41:37;;;;;;;7.57;4.93;;;;;;;29.80;40.33;100444.63;5569556;32;34350;-57
2023/08/24 13:44:39;;;;;;;7.50;4.68;;;;;;;29.87;40.25;100434.31;5550373;32;33653;-57
2023/08/24 13:47:42;;;;;;;10.13;5.07;;;;;;;29.78;41.14;100434.00;5560039;32;33650;-57
2023/08/24 13:50:56;;;;;;;12.32;5.05;;;;;;;29.81;40.72;100432.41;5569533;32;33698;-57
2023/08/24 13:53:59;;;;;;;15.48;5.65;;;;;;;29.83;40.28;100425.25;5569834;32;33588;-57
2023/08/24 13:57:01;;;;;;;10.70;5.12;;;;;;;29.80;40.80;100426.09;5569795;32;33727;-57
2023/08/24 14:00:07;;;;;;;8.20;5.80;;;;;;;29.81;40.90;100426.87;5569689;32;34282;-57
2023/08/24 14:03:13;;;;;;;24.85;5.95;;;;;;;29.83;40.59;100418.94;5569474;32;35158;-57
2023/08/24 14:06:16;;;;;;;7.82;5.00;;;;;;;29.84;42.19;100418.53;5569392;32;33696;-56
2023/08/24 14:09:18;;;;;;;27.80;6.00;;;;;;;29.83;41.85;100421.69;5569543;32;34323;-56
2023/08/24 14:12:20;;;;;;;11.93;5.20;;;;;;;29.91;42.93;100420.44;5569504;32;34370;-56
2023/08/24 14:15:23;;;;;;;8.40;5.00;;;;;;;29.89;41.06;100418.06;5569797;32;34322;-56
2023/08/24 14:18:25;;;;;;;6.57;4.50;;;;;;;29.87;39.77;100414.97;5569435;32;33654;-56
2023/08/24 14:21:27;;;;;;;6.47;5.00;;;;;;;29.83;39.31;100408.66;5569766;32;33650;-56
2023/08/24 14:24:46;;;;;;;13.27;5.32;;;;;;;29.93;39.76;100409.75;5566337;32;33510;-55
2023/08/24 14:27:48;;;;;;;64.45;8.30;;;;;;;30.00;41.22;100408.88;5565195;32;34222;-56
2023/08/24 14:31:05;;;;;;;6.75;4.82;;;;;;;29.98;41.47;100401.00;5569538;32;34437;-56
2023/08/24 14:34:07;;;;;;;8.68;5.00;;;;;;;29.84;40.17;100406.72;5568203;32;33578;-56
2023/08/24 14:37:10;;;;;;;7.12;4.75;;;;;;;29.96;39.55;100406.94;5569558;32;33711;-56
2023/08/24 14:40:12;;;;;;;6.53;4.93;;;;;;;29.93;39.96;100399.50;5569388;32;33596;-56
2023/08/24 14:43:15;;;;;;;14.55;5.45;;;;;;;29.88;39.75;100401.94;5569359;32;34376;-55
2023/08/24 14:46:17;;;;;;;7.18;4.93;;;;;;;29.86;42.56;100401.53;5567140;32;33732;-55
2023/08/24 14:49:19;;;;;;;8.73;5.20;;;;;;;29.96;40.51;100393.13;5567320;32;34312;-58
2023/08/24 14:52:22;;;;;;;6.82;4.95;;;;;;;29.88;40.04;100396.41;5564473;32;33768;-58
